Time;durP1;ratioP1;P1;durP2;ratioP2;P2;SDS_P1;SDS_P2;PMS_P1;PMS_P2;Temp;Humidity;BMP_temperature;BMP_pressure;BME280_temperature;BME280_humidity;BME280_pressure;Samples;Min_cycle;Max_cycle;Signal;HPM_P1;HPM_P2
2023/04/08 02:00:25;;;;;;;15.90;14.50;;;8.20;99.90;;;;;;5958365;23;20289;31
2023/04/08 02:02:54;;;;;;;16.47;14.97;;;8.30;99.90;;;;;;4903154;29;20255;-79
2023/04/08 02:05:21;;;;;;;16.00;14.53;;;8.30;99.90;;;;;;4905898;29;20209;-78
2023/04/08 02:07:48;;;;;;;16.07;14.63;;;8.30;99.90;;;;;;4906430;29;20228;-78
2023/04/08 02:10:15;;;;;;;15.90;14.30;;;8.30;99.90;;;;;;4907405;29;20207;-77
2023/04/08 02:12:43;;;;;;;16.13;14.60;;;8.30;99.90;;;;;;4906797;29;20291;-78
2023/04/08 02:15:11;;;;;;;16.07;14.57;;;8.30;99.90;;;;;;4906319;29;20201;-78
2023/04/08 02:17:44;;;;;;;17.13;15.50;;;8.30;99.90;;;;;;4902752;29;20261;-79
2023/04/08 02:20:16;;;;;;;17.90;16.03;;;8.20;99.90;;;;;;4906387;29;20216;-78
2023/04/08 02:22:48;;;;;;;17.23;15.47;;;8.20;99.90;;;;;;4906356;29;20626;-77
2023/04/08 02:25:17;;;;;;;18.47;16.57;;;8.20;99.90;;;;;;4906036;29;20276;-78
2023/04/08 02:27:47;;;;;;;17.77;15.97;;;8.20;99.90;;;;;;4906031;29;20702;-78
2023/04/08 02:30:15;;;;;;;17.07;15.43;;;8.20;99.90;;;;;;4905419;29;20690;-78
2023/04/08 02:32:45;;;;;;;16.20;14.50;;;8.20;99.90;;;;;;4907577;29;20223;-78
2023/04/08 02:35:14;;;;;;;16.27;14.77;;;8.20;99.90;;;;;;4906181;29;20207;-78
2023/04/08 02:37:41;;;;;;;16.27;14.67;;;8.20;99.90;;;;;;4907471;29;20652;-79
2023/04/08 02:40:23;;;;;;;16.53;14.87;;;8.20;99.90;;;;;;4905510;29;20229;-78
2023/04/08 02:42:50;;;;;;;16.67;15.07;;;8.20;99.90;;;;;;4907322;29;20331;-78
2023/04/08 02:45:18;;;;;;;17.60;15.67;;;8.20;99.90;;;;;;4895543;29;20201;-79
2023/04/08 02:47:46;;;;;;;17.80;16.10;;;8.20;99.90;;;;;;4917905;29;20221;-78
2023/04/08 02:50:12;;;;;;;18.30;16.50;;;8.20;99.90;;;;;;4905547;29;20586;-78
2023/04/08 02:52:39;;;;;;;16.93;15.33;;;8.20;99.90;;;;;;4904332;29;20232;-78
2023/04/08 02:55:08;;;;;;;18.03;16.27;;;8.20;99.90;;;;;;4904410;29;20303;-78
2023/04/08 02:57:36;;;;;;;18.57;16.77;;;8.20;99.90;;;;;;4906380;29;20196;-78
2023/04/08 03:00:03;;;;;;;19.93;17.83;;;8.20;99.90;;;;;;4905520;29;20212;-78
2023/04/08 03:02:30;;;;;;;18.73;16.70;;;8.10;99.90;;;;;;4905769;29;20228;-77
2023/04/08 03:04:58;;;;;;;17.57;15.90;;;8.10;99.90;;;;;;4906492;29;20200;-77
2023/04/08 03:07:25;;;;;;;16.30;14.80;;;8.10;99.90;;;;;;4908990;29;20224;-77
2023/04/08 03:09:53;;;;;;;15.60;14.20;;;8.10;99.90;;;;;;4908805;29;20208;-77
2023/04/08 03:12:21;;;;;;;16.23;14.63;;;8.10;99.90;;;;;;4910763;29;20224;-77
2023/04/08 03:14:47;;;;;;;15.67;14.23;;;8.10;99.90;;;;;;4910741;29;20200;-78
2023/04/08 03:17:14;;;;;;;15.90;14.50;;;8.10;99.90;;;;;;4909719;29;20200;-78
2023/04/08 03:19:41;;;;;;;15.87;14.37;;;8.10;99.90;;;;;;4907219;29;20228;-82
2023/04/08 03:22:09;;;;;;;15.93;14.43;;;8.10;99.90;;;;;;4908218;29;20255;-79
2023/04/08 03:24:36;;;;;;;17.47;15.87;;;8.10;99.90;;;;;;4903828;29;20211;-79
2023/04/08 03:27:03;;;;;;;16.60;15.10;;;8.10;99.90;;;;;;4908063;29;20229;-81
2023/04/08 03:29:30;;;;;;;16.27;14.77;;;8.00;99.90;;;;;;4909641;29;20224;-80
2023/04/08 03:31:57;;;;;;;15.93;14.43;;;8.00;99.90;;;;;;4906547;29;20232;-78
2023/04/08 03:34:24;;;;;;;16.13;14.63;;;8.00;99.90;;;;;;4901806;29;20212;-78
2023/04/08 03:36:50;;;;;;;16.70;15.20;;;8.00;99.90;;;;;;4903977;29;20204;-79
2023/04/08 03:39:19;;;;;;;17.13;15.53;;;8.00;99.90;;;;;;4903204;29;20196;-78
2023/04/08 03:41:45;;;;;;;15.27;13.93;;;8.00;99.90;;;;;;4911790;29;20224;-78
2023/04/08 03:44:12;;;;;;;18.07;16.37;;;7.90;99.90;;;;;;4909008;29;20268;-78
2023/04/08 03:46:39;;;;;;;15.93;14.47;;;7.90;99.90;;;;;;4908155;29;20212;-78
2023/04/08 03:49:06;;;;;;;14.63;13.33;;;7.90;99.90;;;;;;4906659;29;20225;-78
2023/04/08 03:51:33;;;;;;;15.70;14.30;;;7.90;99.90;;;;;;4907960;29;20699;-77
2023/04/08 03:54:00;;;;;;;15.50;14.00;;;7.90;99.90;;;;;;4906628;29;20204;-77
2023/04/08 03:56:28;;;;;;;14.70;13.30;;;7.90;99.90;;;;;;4907277;29;20220;-78
2023/04/08 03:58:54;;;;;;;16.33;14.80;;;7.90;99.90;;;;;;4904963;29;20208;-77
2023/04/08 04:01:21;;;;;;;17.40;15.80;;;7.80;99.90;;;;;;4905587;29;20228;-78
2023/04/08 04:03:48;;;;;;;15.47;13.97;;;7.80;99.90;;;;;;4913473;29;20213;-77
2023/04/08 04:06:15;;;;;;;16.33;14.83;;;7.80;99.90;;;;;;4907756;29;20216;-78
2023/04/08 04:08:42;;;;;;;16.20;14.50;;;7.70;99.90;;;;;;4907067;29;20319;-78
2023/04/08 04:11:08;;;;;;;17.50;15.70;;;7.70;99.90;;;;;;4907830;29;20235;-77
2023/04/08 04:13:37;;;;;;;17.13;15.53;;;7.70;99.90;;;;;;4908759;29;20567;-77
2023/04/08 04:16:04;;;;;;;18.20;16.40;;;7.70;99.90;;;;;;4907353;29;20212;-79
2023/04/08 04:18:30;;;;;;;19.13;17.20;;;7.70;99.90;;;;;;4906454;29;20252;-78
2023/04/08 04:20:57;;;;;;;17.43;15.73;;;7.70;99.90;;;;;;4906857;29;20232;-79
2023/04/08 04:23:24;;;;;;;20.03;17.97;;;7.70;99.90;;;;;;4908041;29;20202;-77
2023/04/08 04:25:51;;;;;;;18.27;16.53;;;7.70;99.90;;;;;;4908337;29;20205;-77
2023/04/08 04:28:18;;;;;;;18.53;16.83;;;7.60;99.90;;;;;;4912064;29;20213;-78
2023/04/08 04:30:46;;;;;;;17.10;15.47;;;7.60;99.90;;;;;;4908935;29;20246;-78
2023/04/08 04:33:13;;;;;;;16.40;14.93;;;7.70;99.90;;;;;;4910722;29;20203;-79
2023/04/08 04:35:40;;;;;;;18.57;16.80;;;7.60;99.90;;;;;;4900205;29;20244;-79
2023/04/08 04:38:11;;;;;;;18.57;16.67;;;7.60;99.90;;;;;;4903104;29;20216;-78
2023/04/08 04:40:38;;;;;;;16.77;15.17;;;7.60;99.90;;;;;;4911121;29;20204;-78
2023/04/08 04:43:05;;;;;;;20.17;18.17;;;7.60;99.90;;;;;;4901403;29;20238;-79
2023/04/08 04:45:32;;;;;;;17.83;16.13;;;7.60;99.90;;;;;;4900006;29;20663;-78
2023/04/08 04:48:00;;;;;;;19.10;17.30;;;7.60;99.90;;;;;;4899530;29;20204;-78
2023/04/08 04:50:26;;;;;;;19.33;17.50;;;7.50;99.90;;;;;;4899551;29;20196;-78
2023/04/08 04:52:53;;;;;;;17.40;15.80;;;7.50;99.90;;;;;;4899633;29;20205;-79
2023/04/08 04:55:21;;;;;;;18.00;16.33;;;7.50;99.90;;;;;;4899461;29;20225;-78
2023/04/08 04:57:48;;;;;;;17.27;15.67;;;7.50;99.90;;;;;;4899492;29;20264;-78
2023/04/08 05:00:15;;;;;;;15.17;13.77;;;7.50;99.90;;;;;;4899072;29;20671;-79
2023/04/08 05:02:42;;;;;;;17.93;16.20;;;7.50;99.90;;;;;;4897722;29;20610;-78
2023/04/08 05:05:10;;;;;;;18.23;16.33;;;7.50;99.90;;;;;;4897872;29;20290;-78
2023/04/08 05:07:38;;;;;;;18.00;16.17;;;7.60;99.90;;;;;;4898438;29;20212;-83
2023/04/08 05:10:06;;;;;;;18.47;16.67;;;7.60;99.90;;;;;;4903344;29;20262;-78
2023/04/08 05:12:32;;;;;;;18.00;16.30;;;7.60;99.90;;;;;;4902317;29;20264;-80
2023/04/08 05:14:59;;;;;;;18.90;16.90;;;7.60;99.90;;;;;;4904229;29;20208;-78
2023/04/08 05:17:26;;;;;;;16.33;14.83;;;7.60;99.90;;;;;;4903113;29;20232;-77
2023/04/08 05:19:53;;;;;;;16.80;15.17;;;7.60;99.90;;;;;;4902592;29;20204;-78
2023/04/08 05:22:21;;;;;;;17.90;16.10;;;7.60;99.90;;;;;;4892449;29;20358;-81
2023/04/08 05:24:48;;;;;;;16.83;15.13;;;7.60;99.90;;;;;;4900089;29;20251;-81
2023/04/08 05:27:15;;;;;;;15.80;14.30;;;7.60;99.90;;;;;;4907044;29;20206;-81
2023/04/08 05:29:41;;;;;;;15.33;13.93;;;7.70;99.90;;;;;;4899278;29;20726;-80
2023/04/08 05:32:08;;;;;;;14.93;13.53;;;7.80;99.90;;;;;;4898522;29;20275;-81
2023/04/08 05:34:35;;;;;;;15.40;14.03;;;7.80;99.90;;;;;;4898316;29;20208;-80
2023/04/08 05:37:02;;;;;;;17.17;15.53;;;7.90;99.90;;;;;;4898822;29;20212;-80
2023/04/08 05:39:30;;;;;;;15.67;14.27;;;7.90;99.90;;;;;;4900710;29;20659;-80
2023/04/08 05:41:57;;;;;;;15.13;13.73;;;8.00;99.90;;;;;;4899518;29;20715;-80
2023/04/08 05:44:24;;;;;;;16.10;14.70;;;8.00;99.90;;;;;;4907466;29;20201;-80
2023/04/08 05:46:50;;;;;;;17.67;15.87;;;8.00;99.90;;;;;;4898400;29;20200;-81
2023/04/08 05:49:17;;;;;;;17.60;15.90;;;8.00;99.90;;;;;;4898397;29;20260;-80
2023/04/08 05:51:44;;;;;;;18.70;16.90;;;8.10;99.90;;;;;;4899548;29;20654;-80
2023/04/08 05:54:11;;;;;;;18.13;16.33;;;8.10;99.90;;;;;;4899112;29;20200;-80
2023/04/08 05:56:39;;;;;;;17.27;15.57;;;8.10;99.90;;;;;;4898839;29;20205;-79
2023/04/08 05:59:06;;;;;;;17.50;15.87;;;8.20;99.90;;;;;;4899891;29;20667;-79
2023/04/08 06:01:33;;;;;;;15.97;14.53;;;8.30;99.90;;;;;;4902902;29;20224;-80
2023/04/08 06:04:00;;;;;;;17.30;15.63;;;8.40;99.90;;;;;;4899682;29;20205;-78
2023/04/08 06:06:26;;;;;;;17.70;16.10;;;8.40;99.90;;;;;;4903009;29;20259;-78
2023/04/08 06:08:53;;;;;;;18.53;16.53;;;8.50;99.90;;;;;;4898244;29;20587;-78
2023/04/08 06:11:20;;;;;;;18.30;16.60;;;8.60;99.90;;;;;;4899468;29;20773;-78
2023/04/08 06:13:48;;;;;;;18.17;16.47;;;8.70;99.90;;;;;;4897511;29;20754;-79
2023/04/08 06:16:16;;;;;;;19.13;17.17;;;8.80;99.90;;;;;;4898851;29;20208;-80
2023/04/08 06:18:43;;;;;;;19.03;17.33;;;8.80;99.90;;;;;;4893188;29;20224;-80
2023/04/08 06:21:10;;;;;;;18.87;17.10;;;8.80;99.90;;;;;;4914113;29;20364;-79
2023/04/08 06:23:37;;;;;;;18.27;16.57;;;8.80;99.90;;;;;;4898984;29;20249;-80
2023/04/08 06:26:04;;;;;;;18.80;16.93;;;8.70;99.90;;;;;;4906069;29;20204;-79
2023/04/08 06:28:31;;;;;;;17.57;15.97;;;8.70;99.90;;;;;;4899780;29;20232;-80
2023/04/08 06:30:59;;;;;;;18.13;16.43;;;8.70;99.90;;;;;;4901357;29;20303;-80
2023/04/08 06:33:26;;;;;;;17.20;15.50;;;8.80;99.90;;;;;;4898779;29;20205;-79
2023/04/08 06:36:02;;;;;;;16.97;15.43;;;8.70;99.90;;;;;;4898912;29;20205;-79
2023/04/08 06:38:30;;;;;;;17.77;16.07;;;8.70;99.90;;;;;;4893849;29;20263;-81
2023/04/08 06:40:56;;;;;;;18.63;16.83;;;8.70;99.90;;;;;;4898260;29;20255;-79
2023/04/08 06:43:23;;;;;;;16.73;15.20;;;8.80;99.90;;;;;;4904221;29;20197;-77
2023/04/08 06:45:50;;;;;;;16.90;15.20;;;8.80;99.90;;;;;;4904389;29;20193;-77
2023/04/08 06:48:19;;;;;;;16.73;15.03;;;8.80;99.90;;;;;;4903536;29;20208;-77
2023/04/08 06:50:46;;;;;;;16.10;14.60;;;8.80;99.90;;;;;;4905046;29;20216;-78
2023/04/08 06:53:13;;;;;;;17.27;15.67;;;8.80;99.90;;;;;;4904015;29;20216;-78
2023/04/08 06:55:39;;;;;;;17.63;16.03;;;8.80;99.90;;;;;;4904365;29;20209;-78
2023/04/08 06:58:06;;;;;;;16.97;15.37;;;8.80;99.90;;;;;;4906292;29;20235;-78
2023/04/08 07:00:33;;;;;;;16.60;15.10;;;8.80;99.90;;;;;;4905561;29;20221;-78
2023/04/08 07:03:00;;;;;;;16.10;14.53;;;8.80;99.90;;;;;;4899479;29;20213;-78
2023/04/08 07:05:28;;;;;;;16.33;14.83;;;8.80;99.90;;;;;;4899172;29;20200;-79
2023/04/08 07:07:55;;;;;;;16.13;14.63;;;8.90;99.90;;;;;;4900066;29;20204;-80
2023/04/08 07:10:25;;;;;;;16.93;15.33;;;8.90;99.90;;;;;;4894951;29;20231;-80
2023/04/08 07:12:52;;;;;;;17.07;15.47;;;8.90;99.90;;;;;;4890565;29;20281;-78
2023/04/08 07:15:19;;;;;;;16.77;15.17;;;8.90;99.90;;;;;;4901675;29;20641;-77
2023/04/08 07:17:46;;;;;;;16.43;14.97;;;8.90;99.90;;;;;;4902380;29;20200;-77
2023/04/08 07:20:13;;;;;;;18.33;16.53;;;8.90;99.90;;;;;;4902172;29;20212;-76
2023/04/08 07:22:41;;;;;;;19.40;17.50;;;8.90;99.90;;;;;;4907432;29;20228;-78
2023/04/08 07:25:09;;;;;;;18.77;16.97;;;8.90;99.90;;;;;;4902202;29;20270;-77
2023/04/08 07:27:36;;;;;;;18.97;17.07;;;8.90;99.90;;;;;;4904284;29;20200;-77
2023/04/08 07:30:03;;;;;;;16.73;15.23;;;8.80;99.90;;;;;;4902943;29;20216;-77
2023/04/08 07:32:30;;;;;;;17.03;15.43;;;8.90;99.90;;;;;;4897570;29;20223;-77
2023/04/08 07:34:58;;;;;;;16.97;15.47;;;8.80;99.90;;;;;;4904950;29;20268;-78
2023/04/08 07:37:25;;;;;;;16.23;14.73;;;8.80;99.90;;;;;;4905201;29;20204;-77
2023/04/08 07:39:54;;;;;;;16.60;15.07;;;8.90;99.90;;;;;;4904632;29;20205;-77
2023/04/08 07:42:20;;;;;;;17.03;15.33;;;8.80;99.90;;;;;;4902961;29;20224;-77
2023/04/08 07:44:47;;;;;;;16.33;14.83;;;8.90;99.90;;;;;;4903383;29;20637;-77
2023/04/08 07:47:15;;;;;;;16.83;15.23;;;9.00;99.90;;;;;;4904439;29;20212;-78
2023/04/08 07:49:42;;;;;;;15.43;14.13;;;9.10;99.90;;;;;;4903282;29;20272;-78
2023/04/08 07:52:09;;;;;;;15.20;13.87;;;9.10;99.90;;;;;;4905434;29;20232;-77
2023/04/08 07:54:36;;;;;;;15.53;14.23;;;9.20;99.90;;;;;;4907232;29;20742;-77
2023/04/08 07:57:04;;;;;;;14.83;13.53;;;9.20;99.90;;;;;;4908405;29;20208;-78
2023/04/08 07:59:32;;;;;;;13.80;12.60;;;9.20;99.90;;;;;;4908460;29;20564;-77
2023/04/08 08:01:59;;;;;;;14.10;12.90;;;9.30;99.90;;;;;;4907716;29;20240;-78
2023/04/08 08:04:25;;;;;;;13.67;12.57;;;9.30;99.90;;;;;;4907944;29;20229;-77
2023/04/08 08:06:52;;;;;;;14.20;13.10;;;9.30;99.90;;;;;;4907345;29;20212;-77
2023/04/08 08:09:19;;;;;;;12.50;11.50;;;9.30;99.90;;;;;;4906429;29;20211;-77
2023/04/08 08:11:46;;;;;;;12.80;11.80;;;9.30;99.90;;;;;;4907395;29;20559;-78
2023/04/08 08:14:15;;;;;;;13.30;12.20;;;9.40;99.90;;;;;;4907441;29;20204;-77
2023/04/08 08:16:43;;;;;;;10.93;9.83;;;9.40;99.90;;;;;;4908280;29;20647;-78
2023/04/08 08:19:11;;;;;;;9.00;8.20;;;9.60;99.90;;;;;;4906189;29;20212;-77
2023/04/08 08:21:38;;;;;;;13.50;12.30;;;9.70;99.90;;;;;;4907192;29;20270;-77
2023/04/08 08:24:05;;;;;;;12.90;11.90;;;9.90;99.90;;;;;;4907376;29;20210;-78
2023/04/08 08:26:34;;;;;;;13.07;11.97;;;10.00;99.90;;;;;;4908591;29;20672;-78
2023/04/08 08:29:01;;;;;;;12.83;11.83;;;10.10;99.90;;;;;;4908344;29;20614;-78
2023/04/08 08:31:29;;;;;;;11.40;10.50;;;10.30;99.90;;;;;;4908666;29;20254;-77
2023/04/08 08:33:55;;;;;;;12.17;11.27;;;10.30;99.90;;;;;;4907148;29;20209;-77
2023/04/08 08:36:23;;;;;;;11.20;10.30;;;10.30;99.90;;;;;;4905380;29;20205;-78
2023/04/08 08:38:50;;;;;;;10.40;9.50;;;10.30;99.90;;;;;;4906928;29;20206;-77
2023/04/08 08:41:17;;;;;;;10.83;9.93;;;10.30;99.90;;;;;;4908543;29;20607;-78
2023/04/08 08:43:44;;;;;;;10.00;9.20;;;10.20;99.90;;;;;;4907041;29;20716;-78
2023/04/08 08:46:11;;;;;;;11.80;10.80;;;10.30;99.90;;;;;;4907542;29;20258;-78
2023/04/08 08:48:39;;;;;;;11.90;10.80;;;10.30;99.90;;;;;;4908511;29;20218;-78
2023/04/08 08:51:08;;;;;;;10.93;9.83;;;10.40;99.90;;;;;;4906800;29;20737;-78
2023/04/08 08:53:35;;;;;;;11.23;10.23;;;10.40;99.90;;;;;;4903293;29;20232;-77
2023/04/08 08:56:02;;;;;;;12.07;11.07;;;10.40;99.90;;;;;;4908466;29;20639;-78
2023/04/08 08:58:29;;;;;;;10.47;9.47;;;10.50;99.90;;;;;;4907466;29;20198;-77
2023/04/08 09:00:56;;;;;;;11.13;10.23;;;10.70;99.90;;;;;;4908624;29;20238;-77
2023/04/08 09:03:26;;;;;;;10.40;9.60;;;10.90;99.90;;;;;;4908103;29;20207;-77
2023/04/08 09:05:56;;;;;;;11.13;10.13;;;11.10;99.90;;;;;;4907289;29;20212;-76
2023/04/08 09:08:28;;;;;;;9.97;9.07;;;11.10;99.90;;;;;;4905133;29;20225;-77
2023/04/08 09:10:55;;;;;;;9.10;8.20;;;11.10;99.90;;;;;;4908349;29;20307;-77
2023/04/08 09:13:23;;;;;;;7.93;7.23;;;11.20;99.90;;;;;;4907401;29;20210;-78
2023/04/08 09:16:04;;;;;;;9.30;8.50;;;11.20;99.90;;;;;;4909421;29;20227;-77
2023/04/08 09:18:32;;;;;;;10.07;9.17;;;11.10;99.90;;;;;;4910020;29;20235;-78
2023/04/08 09:21:01;;;;;;;8.40;7.60;;;11.10;99.90;;;;;;4904210;29;20228;-79
2023/04/08 09:23:42;;;;;;;8.73;7.93;;;11.20;99.90;;;;;;4897466;29;20267;-81
2023/04/08 09:26:10;;;;;;;7.50;6.63;;;11.20;99.90;;;;;;4911529;29;20206;-82
2023/04/08 09:28:37;;;;;;;8.40;7.23;;;11.40;99.90;;;;;;4898492;29;20669;-81
2023/04/08 09:31:21;;;;;;;8.67;7.80;;;11.60;99.90;;;;;;4900474;29;20280;-81
2023/04/08 09:33:48;;;;;;;8.57;7.63;;;11.80;99.90;;;;;;4905416;29;20215;-79
2023/04/08 09:36:17;;;;;;;7.67;6.70;;;12.10;99.90;;;;;;4899370;29;20659;-78
2023/04/08 09:38:44;;;;;;;7.87;6.40;;;12.10;99.90;;;;;;4897772;29;20216;-78
2023/04/08 09:41:14;;;;;;;7.23;6.50;;;12.20;99.90;;;;;;4900283;29;20284;-79
2023/04/08 09:43:47;;;;;;;10.53;6.87;;;12.40;99.90;;;;;;4901386;29;20283;-79
2023/04/08 09:46:17;;;;;;;6.50;5.77;;;12.50;99.90;;;;;;4895181;29;20216;-79
2023/04/08 09:48:50;;;;;;;7.60;6.60;;;12.80;99.90;;;;;;4899306;29;20219;-78
2023/04/08 09:51:20;;;;;;;8.13;7.30;;;13.00;99.90;;;;;;4899998;29;20260;-77
2023/04/08 09:53:49;;;;;;;8.60;7.67;;;13.30;99.90;;;;;;4899584;29;20204;-78
2023/04/08 09:56:19;;;;;;;8.80;7.53;;;13.30;99.90;;;;;;4899605;29;20200;-78
2023/04/08 09:58:52;;;;;;;8.53;7.40;;;13.10;99.90;;;;;;4899567;29;20209;-78
2023/04/08 10:01:28;;;;;;;10.20;8.83;;;13.30;99.90;;;;;;4908935;29;20230;-78
2023/04/08 10:03:57;;;;;;;10.30;8.57;;;13.20;99.90;;;;;;4900899;29;20210;-78
2023/04/08 10:06:30;;;;;;;10.17;8.17;;;13.20;99.90;;;;;;4899107;29;20355;-77
2023/04/08 10:08:58;;;;;;;9.60;8.60;;;13.20;99.90;;;;;;4895827;29;20294;-76
2023/04/08 10:11:25;;;;;;;9.67;8.33;;;13.40;99.90;;;;;;4896437;29;20249;-76
2023/04/08 10:13:52;;;;;;;10.47;9.20;;;13.50;99.90;;;;;;4895777;29;20221;-77
2023/04/08 10:16:25;;;;;;;10.00;8.07;;;13.60;99.90;;;;;;4894950;29;20929;-76
2023/04/08 10:18:54;;;;;;;10.70;9.60;;;13.90;99.90;;;;;;4896886;29;20219;-76
2023/04/08 10:21:36;;;;;;;11.27;10.17;;;14.00;99.90;;;;;;4896574;29;20275;-76
2023/04/08 10:24:07;;;;;;;10.43;8.53;;;13.80;99.90;;;;;;4896483;29;20252;-76
2023/04/08 10:26:42;;;;;;;8.90;7.83;;;14.00;99.90;;;;;;4895301;29;21746;-76
2023/04/08 10:29:34;;;;;;;10.80;8.83;;;14.10;99.90;;;;;;4897266;29;20452;-79
2023/04/08 10:32:01;;;;;;;9.73;8.73;;;14.10;99.90;;;;;;4895923;29;20233;-78
2023/04/08 10:34:29;;;;;;;10.73;8.27;;;13.80;99.90;;;;;;4900540;29;20588;-77
2023/04/08 10:37:00;;;;;;;13.00;10.53;;;13.90;99.90;;;;;;4898214;29;20204;-79
2023/04/08 10:39:28;;;;;;;9.83;8.60;;;13.90;99.90;;;;;;4898661;29;20202;-78
2023/04/08 10:41:56;;;;;;;10.53;9.43;;;13.90;99.90;;;;;;4899535;29;20657;-78
2023/04/08 10:44:26;;;;;;;11.43;8.77;;;14.10;99.90;;;;;;4898787;29;20606;-79
2023/04/08 10:46:53;;;;;;;11.40;10.03;;;14.50;99.90;;;;;;4902539;29;20214;-79
2023/04/08 10:49:21;;;;;;;11.10;10.00;;;14.80;99.90;;;;;;4902349;29;20219;-79
2023/04/08 10:51:48;;;;;;;9.97;8.80;;;14.40;99.90;;;;;;4903119;29;20255;-78
2023/04/08 10:54:18;;;;;;;10.27;7.90;;;14.30;99.90;;;;;;4899585;29;20206;-79
2023/04/08 10:56:46;;;;;;;10.17;8.43;;;14.60;99.90;;;;;;4899774;29;20214;-79
2023/04/08 10:59:16;;;;;;;8.90;8.00;;;14.80;99.90;;;;;;4896617;29;20196;-79
2023/04/08 11:01:45;;;;;;;10.00;8.03;;;14.60;99.90;;;;;;4913106;29;20578;-79
2023/04/08 11:04:17;;;;;;;11.93;8.97;;;14.30;99.90;;;;;;4900633;29;20575;-79
2023/04/08 11:06:45;;;;;;;11.93;9.73;;;13.90;99.90;;;;;;4897385;29;20682;-78
2023/04/08 11:09:13;;;;;;;11.07;9.73;;;13.80;99.90;;;;;;4898001;29;20298;-79
2023/04/08 11:11:44;;;;;;;12.40;9.97;;;13.40;99.90;;;;;;4900017;29;20261;-82
2023/04/08 11:14:11;;;;;;;9.90;8.73;;;13.20;99.90;;;;;;4896819;29;20195;-81
2023/04/08 11:16:39;;;;;;;12.33;11.00;;;13.10;99.90;;;;;;4896819;29;20208;-81
2023/04/08 11:19:07;;;;;;;8.90;8.00;;;12.90;99.90;;;;;;4894506;29;20201;-81
2023/04/08 11:21:36;;;;;;;11.17;9.57;;;13.00;99.90;;;;;;4908288;29;20263;-81
2023/04/08 11:24:08;;;;;;;13.50;10.97;;;12.80;99.90;;;;;;4895113;29;20199;-82
2023/04/08 11:26:37;;;;;;;10.30;8.73;;;12.50;99.90;;;;;;4896164;29;20205;-81
2023/04/08 11:29:07;;;;;;;11.17;10.07;;;12.40;99.90;;;;;;4901507;29;20213;-75
2023/04/08 11:31:35;;;;;;;11.13;9.97;;;12.30;99.90;;;;;;4897758;29;20584;-75
2023/04/08 11:34:02;;;;;;;12.27;10.93;;;12.20;99.90;;;;;;4898438;29;20197;-73
2023/04/08 11:36:29;;;;;;;10.40;8.30;;;12.10;99.90;;;;;;4899735;29;20236;-75
2023/04/08 11:38:56;;;;;;;11.73;10.53;;;12.20;99.90;;;;;;4899131;29;20205;-74
2023/04/08 11:41:23;;;;;;;12.70;10.13;;;12.10;99.90;;;;;;4898227;29;20289;-76
2023/04/08 11:43:54;;;;;;;11.93;9.73;;;12.10;99.90;;;;;;4899700;29;20218;-77
2023/04/08 11:46:23;;;;;;;10.23;8.73;;;12.10;99.90;;;;;;4903838;29;20205;-78
2023/04/08 11:49:01;;;;;;;11.07;9.97;;;12.00;99.90;;;;;;4904487;29;20201;-78
2023/04/08 11:51:28;;;;;;;10.43;9.33;;;12.10;99.90;;;;;;4901530;29;20224;-77
2023/04/08 11:53:55;;;;;;;11.33;9.53;;;12.20;99.90;;;;;;4899942;29;20706;-77
2023/04/08 11:56:23;;;;;;;10.67;9.07;;;12.30;99.90;;;;;;4897170;29;20611;-77
2023/04/08 11:58:50;;;;;;;10.57;9.13;;;12.30;99.90;;;;;;4906426;29;20201;-78
2023/04/08 12:01:17;;;;;;;10.10;8.27;;;12.30;99.90;;;;;;4899091;29;20247;-77
2023/04/08 12:04:00;;;;;;;12.40;9.63;;;12.50;99.90;;;;;;4894693;29;20213;-77
2023/04/08 12:06:30;;;;;;;12.90;10.97;;;12.40;99.90;;;;;;4912797;29;20260;-76
2023/04/08 12:08:57;;;;;;;12.23;8.90;;;12.20;99.90;;;;;;4901462;29;20297;-76
2023/04/08 12:11:24;;;;;;;10.43;9.13;;;12.20;99.90;;;;;;4900574;29;20228;-77
2023/04/08 12:13:52;;;;;;;11.50;9.60;;;12.40;99.90;;;;;;4897258;29;20709;-75
2023/04/08 12:16:20;;;;;;;12.60;9.77;;;12.50;99.90;;;;;;4900772;29;20268;-77
2023/04/08 12:18:47;;;;;;;10.87;8.27;;;12.40;99.90;;;;;;4895527;29;20220;-77
2023/04/08 12:21:15;;;;;;;10.10;8.63;;;12.30;99.90;;;;;;4896620;29;20629;-78
2023/04/08 12:23:42;;;;;;;10.73;8.40;;;12.40;99.90;;;;;;4903535;29;20196;-76
2023/04/08 12:26:10;;;;;;;11.30;9.10;;;12.50;99.90;;;;;;4902081;29;20675;-77
2023/04/08 12:28:37;;;;;;;12.73;10.63;;;12.60;99.90;;;;;;4901408;29;20215;-78
2023/04/08 12:31:04;;;;;;;12.03;9.07;;;12.50;99.90;;;;;;4899301;29;20227;-78
2023/04/08 12:33:32;;;;;;;10.00;8.47;;;12.40;99.90;;;;;;4899626;29;20204;-77
2023/04/08 12:35:59;;;;;;;9.00;8.10;;;12.50;99.90;;;;;;4902011;29;20205;-77
2023/04/08 12:38:27;;;;;;;11.63;10.13;;;12.50;99.90;;;;;;4897207;29;20201;-76
2023/04/08 12:40:54;;;;;;;10.70;8.63;;;12.40;99.90;;;;;;4897626;29;20281;-77
2023/04/08 12:43:22;;;;;;;9.67;8.67;;;12.50;99.90;;;;;;4899858;29;20273;-77
2023/04/08 12:45:49;;;;;;;10.67;8.60;;;12.40;99.90;;;;;;4899565;29;20280;-76
2023/04/08 12:48:16;;;;;;;10.33;9.23;;;12.50;99.90;;;;;;4898840;29;20209;-77
2023/04/08 12:50:42;;;;;;;10.70;8.87;;;12.30;99.90;;;;;;4899797;29;20225;-77
2023/04/08 12:53:09;;;;;;;9.97;8.93;;;12.50;99.90;;;;;;4900792;29;20269;-77
2023/04/08 12:55:37;;;;;;;11.30;8.73;;;12.60;99.90;;;;;;4898865;29;20220;-77
2023/04/08 12:58:05;;;;;;;11.70;9.73;;;12.60;99.90;;;;;;4897662;29;20616;-77
2023/04/08 13:00:32;;;;;;;15.77;11.00;;;12.40;99.90;;;;;;4898822;29;20204;-77
2023/04/08 13:02:59;;;;;;;13.03;9.33;;;12.30;99.90;;;;;;4902991;29;20194;-77
2023/04/08 13:05:25;;;;;;;11.70;9.70;;;12.30;99.90;;;;;;4901224;29;20200;-77
2023/04/08 13:07:52;;;;;;;9.43;8.40;;;12.20;99.90;;;;;;4899887;29;20264;-77
2023/04/08 13:10:19;;;;;;;9.70;8.40;;;12.20;99.90;;;;;;4899634;29;20469;-76
2023/04/08 13:12:47;;;;;;;9.00;8.07;;;12.30;99.90;;;;;;4900592;29;20235;-77
2023/04/08 13:15:14;;;;;;;11.27;9.03;;;12.50;99.90;;;;;;4891228;29;20201;-76
2023/04/08 13:17:42;;;;;;;12.17;9.43;;;12.50;99.90;;;;;;4900719;29;20208;-77
2023/04/08 13:20:10;;;;;;;12.47;9.13;;;12.60;99.90;;;;;;4898791;29;20217;-77
2023/04/08 13:22:37;;;;;;;10.87;8.80;;;12.30;99.90;;;;;;4893570;29;20308;-77
2023/04/08 13:25:06;;;;;;;11.93;10.63;;;12.20;99.90;;;;;;4898979;29;20651;-77
2023/04/08 13:27:33;;;;;;;9.70;8.17;;;12.20;99.90;;;;;;4896395;29;20200;-76
2023/04/08 13:30:01;;;;;;;12.80;11.40;;;12.10;99.90;;;;;;4897298;29;20331;-77
2023/04/08 13:32:28;;;;;;;13.27;10.90;;;11.90;99.90;;;;;;4902409;29;20287;-77
2023/04/08 13:34:55;;;;;;;12.30;10.77;;;11.70;99.90;;;;;;4901272;29;20193;-77
2023/04/08 13:37:21;;;;;;;12.37;10.10;;;11.60;99.90;;;;;;4900633;29;20218;-77
2023/04/08 13:39:48;;;;;;;11.17;10.07;;;11.50;99.90;;;;;;4901074;29;20243;-77
2023/04/08 13:42:15;;;;;;;15.63;12.40;;;11.50;99.90;;;;;;4898030;29;20228;-80
2023/04/08 13:44:42;;;;;;;15.80;14.43;;;11.40;99.90;;;;;;4898943;29;20211;-82
2023/04/08 13:47:10;;;;;;;14.13;12.83;;;11.20;99.90;;;;;;4894782;29;20619;-77
2023/04/08 13:49:37;;;;;;;13.10;12.00;;;11.20;99.90;;;;;;4896473;29;20211;-77
2023/04/08 13:52:04;;;;;;;14.83;13.50;;;11.20;99.90;;;;;;4899050;29;20244;-77
2023/04/08 13:54:31;;;;;;;15.83;14.33;;;11.20;99.90;;;;;;4902526;29;20241;-77
2023/04/08 13:56:57;;;;;;;14.57;13.37;;;11.20;99.90;;;;;;4894790;29;20706;-77
2023/04/08 13:59:24;;;;;;;15.73;14.33;;;11.20;99.90;;;;;;4899276;29;20206;-77
2023/04/08 14:01:52;;;;;;;15.27;13.87;;;11.10;99.90;;;;;;4898540;29;20265;-76
2023/04/08 14:04:21;;;;;;;15.07;13.73;;;11.20;99.90;;;;;;4897466;29;20638;-77
2023/04/08 14:06:49;;;;;;;15.13;13.87;;;11.20;99.90;;;;;;4898356;29;20252;-76
2023/04/08 14:09:16;;;;;;;14.40;13.17;;;11.20;99.90;;;;;;4897527;29;20268;-77
2023/04/08 14:11:43;;;;;;;13.77;12.63;;;11.30;99.90;;;;;;4898764;29;20283;-77
2023/04/08 14:14:10;;;;;;;13.83;12.63;;;11.30;99.90;;;;;;4898825;29;20256;-77
2023/04/08 14:16:37;;;;;;;14.17;12.97;;;11.40;99.90;;;;;;4898330;29;20203;-77
2023/04/08 14:19:05;;;;;;;14.00;12.67;;;11.40;99.90;;;;;;4896836;29;20558;-77
2023/04/08 14:21:33;;;;;;;13.47;12.37;;;11.40;99.90;;;;;;4898602;29;20224;-77
2023/04/08 14:24:00;;;;;;;12.43;11.33;;;11.50;99.90;;;;;;4901681;29;20211;-77
2023/04/08 14:26:27;;;;;;;12.80;11.73;;;11.50;99.90;;;;;;4900899;29;20742;-77
2023/04/08 14:28:53;;;;;;;14.47;13.13;;;11.40;99.90;;;;;;4893478;29;20283;-77
2023/04/08 14:31:20;;;;;;;13.50;12.30;;;11.40;99.90;;;;;;4898970;29;20238;-77
2023/04/08 14:33:47;;;;;;;14.27;13.00;;;11.40;99.90;;;;;;4900500;29;20225;-77
2023/04/08 14:36:14;;;;;;;14.40;13.20;;;11.30;99.90;;;;;;4899023;29;20203;-77
2023/04/08 14:38:42;;;;;;;13.60;12.47;;;11.20;99.90;;;;;;4897772;29;20215;-77